Time;durP1;ratioP1;P1;durP2;ratioP2;P2;SDS_P1;SDS_P2;PMS_P1;PMS_P2;Temp;Humidity;BMP_temperature;BMP_pressure;BME280_temperature;BME280_humidity;BME280_pressure;Samples;Min_cycle;Max_cycle;Signal;HPM_P1;HPM_P2
2022/01/31 00:00:34;;;;;;;9.799999;3.45;;;;;;;1.2;60.61621;95559;;;;
2022/01/31 00:01:34;;;;;;;10.25;3.55;;;;;;;1.29;60.81934;95522.49;;;;
2022/01/31 00:02:35;;;;;;;10.25;3.55;;;;;;;1.29;60.81934;95522.49;;;;
2022/01/31 00:03:36;;;;;;;10.25;3.55;;;;;;;1.29;60.81934;95522.49;;;;
2022/01/31 00:04:36;;;;;;;10.25;3.55;;;;;;;1.29;60.81934;95522.49;;;;
2022/01/31 00:05:37;;;;;;;10.25;3.55;;;;;;;1.29;60.81934;95522.49;;;;
2022/01/31 00:06:37;;;;;;;10.25;3.55;;;;;;;1.29;60.81934;95522.49;;;;
2022/01/31 00:07:38;;;;;;;10.25;3.55;;;;;;;1.29;60.81934;95522.49;;;;
2022/01/31 00:08:40;;;;;;;10.25;3.55;;;;;;;1.29;60.81934;95522.49;;;;
2022/01/31 00:09:42;;;;;;;10.25;3.55;;;;;;;1.29;60.81934;95522.49;;;;
2022/01/31 00:10:43;;;;;;;10.25;3.55;;;;;;;1.29;60.81934;95522.49;;;;
2022/01/31 00:11:51;;;;;;;11.2;3.2;;;;;;;1.43;60.8584;95452.15;;;;
2022/01/31 00:12:57;;;;;;;11.2;3.2;;;;;;;1.43;60.8584;95452.15;;;;
2022/01/31 00:14:08;;;;;;;11.2;3.2;;;;;;;1.43;60.8584;95452.15;;;;
2022/01/31 00:15:09;;;;;;;11.2;3.2;;;;;;;1.43;60.8584;95452.15;;;;
2022/01/31 00:16:14;;;;;;;11.2;3.2;;;;;;;1.43;60.8584;95452.15;;;;
2022/01/31 00:17:15;;;;;;;11.2;3.2;;;;;;;1.43;60.8584;95452.15;;;;
2022/01/31 00:18:17;;;;;;;11.2;3.2;;;;;;;1.43;60.8584;95452.15;;;;
2022/01/31 00:19:18;;;;;;;11.2;3.2;;;;;;;1.43;60.8584;95452.15;;;;
2022/01/31 00:20:18;;;;;;;11.2;3.2;;;;;;;1.43;60.8584;95452.15;;;;
2022/01/31 00:21:19;;;;;;;11.2;3.2;;;;;;;1.43;60.8584;95452.15;;;;
2022/01/31 00:22:20;;;;;;;6.600001;3;;;;;;;1.45;60.95703;95444.84;;;;
2022/01/31 00:23:20;;;;;;;6.600001;3;;;;;;;1.45;60.95703;95444.84;;;;
2022/01/31 00:24:21;;;;;;;6.600001;3;;;;;;;1.45;60.95703;95444.84;;;;
2022/01/31 00:25:22;;;;;;;6.600001;3;;;;;;;1.45;60.95703;95444.84;;;;
2022/01/31 00:26:22;;;;;;;6.600001;3;;;;;;;1.45;60.95703;95444.84;;;;
2022/01/31 00:27:23;;;;;;;6.600001;3;;;;;;;1.45;60.95703;95444.84;;;;
2022/01/31 00:28:23;;;;;;;6.600001;3;;;;;;;1.45;60.95703;95444.84;;;;
2022/01/31 00:29:24;;;;;;;6.600001;3;;;;;;;1.45;60.95703;95444.84;;;;
2022/01/31 00:30:25;;;;;;;6.600001;3;;;;;;;1.45;60.95703;95444.84;;;;
2022/01/31 00:31:25;;;;;;;6.600001;3;;;;;;;1.45;60.95703;95444.84;;;;
2022/01/31 00:32:29;;;;;;;6.600001;3;;;;;;;1.45;60.95703;95444.84;;;;
2022/01/31 00:33:30;;;;;;;6.650001;3.25;;;;;;;1.61;61.1377;95428.34;;;;
2022/01/31 00:34:31;;;;;;;6.650001;3.25;;;;;;;1.61;61.1377;95428.34;;;;
2022/01/31 00:35:31;;;;;;;6.650001;3.25;;;;;;;1.61;61.1377;95428.34;;;;
2022/01/31 00:36:32;;;;;;;6.650001;3.25;;;;;;;1.61;61.1377;95428.34;;;;
2022/01/31 00:37:33;;;;;;;6.650001;3.25;;;;;;;1.61;61.1377;95428.34;;;;
2022/01/31 00:38:34;;;;;;;6.650001;3.25;;;;;;;1.61;61.1377;95428.34;;;;
2022/01/31 00:39:36;;;;;;;6.650001;3.25;;;;;;;1.61;61.1377;95428.34;;;;
2022/01/31 00:40:41;;;;;;;6.650001;3.25;;;;;;;1.61;61.1377;95428.34;;;;
2022/01/31 00:41:42;;;;;;;6.650001;3.25;;;;;;;1.61;61.1377;95428.34;;;;
2022/01/31 00:42:43;;;;;;;6.650001;3.25;;;;;;;1.61;61.1377;95428.34;;;;
2022/01/31 00:43:54;;;;;;;7.400001;3.05;;;;;;;1.76;61.10547;95401.29;;;;
2022/01/31 00:45:00;;;;;;;7.400001;3.05;;;;;;;1.76;61.10547;95401.29;;;;
2022/01/31 00:46:03;;;;;;;7.400001;3.05;;;;;;;1.76;61.10547;95401.29;;;;
2022/01/31 00:47:15;;;;;;;7.400001;3.05;;;;;;;1.76;61.10547;95401.29;;;;
2022/01/31 00:48:19;;;;;;;7.400001;3.05;;;;;;;1.76;61.10547;95401.29;;;;
2022/01/31 00:49:33;;;;;;;7.400001;3.05;;;;;;;1.76;61.10547;95401.29;;;;
2022/01/31 00:50:38;;;;;;;7.400001;3.05;;;;;;;1.76;61.10547;95401.29;;;;
2022/01/31 00:51:39;;;;;;;7.400001;3.05;;;;;;;1.76;61.10547;95401.29;;;;
2022/01/31 00:52:39;;;;;;;7.400001;3.05;;;;;;;1.76;61.10547;95401.29;;;;
2022/01/31 00:53:43;;;;;;;7.400001;3.05;;;;;;;1.76;61.10547;95401.29;;;;
2022/01/31 00:54:43;;;;;;;7.65;2.900001;;;;;;;1.87;61.18457;95374.24;;;;
2022/01/31 00:55:45;;;;;;;7.65;2.900001;;;;;;;1.87;61.18457;95374.24;;;;
2022/01/31 00:56:45;;;;;;;7.65;2.900001;;;;;;;1.87;61.18457;95374.24;;;;
2022/01/31 00:57:46;;;;;;;7.65;2.900001;;;;;;;1.87;61.18457;95374.24;;;;
2022/01/31 00:58:46;;;;;;;7.65;2.900001;;;;;;;1.87;61.18457;95374.24;;;;
2022/01/31 00:59:50;;;;;;;7.65;2.900001;;;;;;;1.87;61.18457;95374.24;;;;
2022/01/31 01:00:51;;;;;;;7.65;2.900001;;;;;;;1.87;61.18457;95374.24;;;;
2022/01/31 01:01:51;;;;;;;7.65;2.900001;;;;;;;1.87;61.18457;95374.24;;;;
2022/01/31 01:02:52;;;;;;;7.65;2.900001;;;;;;;1.87;61.18457;95374.24;;;;
2022/01/31 01:03:52;;;;;;;7.65;2.900001;;;;;;;1.87;61.18457;95374.24;;;;
2022/01/31 01:04:53;;;;;;;7.65;2.900001;;;;;;;1.87;61.18457;95374.24;;;;
2022/01/31 01:05:54;;;;;;;8.200001;3.3;;;;;;;1.81;61.33496;95347.42;;;;
2022/01/31 01:06:54;;;;;;;8.200001;3.3;;;;;;;1.81;61.33496;95347.42;;;;
2022/01/31 01:07:55;;;;;;;8.200001;3.3;;;;;;;1.81;61.33496;95347.42;;;;
2022/01/31 01:08:56;;;;;;;8.200001;3.3;;;;;;;1.81;61.33496;95347.42;;;;
2022/01/31 01:09:56;;;;;;;8.200001;3.3;;;;;;;1.81;61.33496;95347.42;;;;
2022/01/31 01:10:57;;;;;;;8.200001;3.3;;;;;;;1.81;61.33496;95347.42;;;;
2022/01/31 01:11:57;;;;;;;8.200001;3.3;;;;;;;1.81;61.33496;95347.42;;;;
2022/01/31 01:12:58;;;;;;;8.200001;3.3;;;;;;;1.81;61.33496;95347.42;;;;
2022/01/31 01:13:58;;;;;;;8.200001;3.3;;;;;;;1.81;61.33496;95347.42;;;;
2022/01/31 01:14:59;;;;;;;8.200001;3.3;;;;;;;1.81;61.33496;95347.42;;;;
2022/01/31 01:16:00;;;;;;;9.649999;3.45;;;;;;;1.75;61.51465;95365.44;;;;
2022/01/31 01:17:00;;;;;;;9.649999;3.45;;;;;;;1.75;61.51465;95365.44;;;;
2022/01/31 01:18:01;;;;;;;9.649999;3.45;;;;;;;1.75;61.51465;95365.44;;;;
2022/01/31 01:19:01;;;;;;;9.649999;3.45;;;;;;;1.75;61.51465;95365.44;;;;
2022/01/31 01:20:02;;;;;;;9.649999;3.45;;;;;;;1.75;61.51465;95365.44;;;;
2022/01/31 01:21:04;;;;;;;9.649999;3.45;;;;;;;1.75;61.51465;95365.44;;;;
2022/01/31 01:22:05;;;;;;;9.649999;3.45;;;;;;;1.75;61.51465;95365.44;;;;
2022/01/31 01:23:06;;;;;;;9.649999;3.45;;;;;;;1.75;61.51465;95365.44;;;;
2022/01/31 01:24:06;;;;;;;9.649999;3.45;;;;;;;1.75;61.51465;95365.44;;;;
2022/01/31 01:25:07;;;;;;;9.649999;3.45;;;;;;;1.75;61.51465;95365.44;;;;
2022/01/31 01:26:08;;;;;;;9.649999;3.45;;;;;;;1.75;61.51465;95365.44;;;;
2022/01/31 01:27:10;;;;;;;9.25;3.1;;;;;;;1.78;61.63477;95332.73;;;;
2022/01/31 01:28:10;;;;;;;9.25;3.1;;;;;;;1.78;61.63477;95332.73;;;;
2022/01/31 01:29:11;;;;;;;9.25;3.1;;;;;;;1.78;61.63477;95332.73;;;;
2022/01/31 01:30:13;;;;;;;9.25;3.1;;;;;;;1.78;61.63477;95332.73;;;;
2022/01/31 01:31:14;;;;;;;9.25;3.1;;;;;;;1.78;61.63477;95332.73;;;;
2022/01/31 01:32:15;;;;;;;9.25;3.1;;;;;;;1.78;61.63477;95332.73;;;;
2022/01/31 01:33:19;;;;;;;9.25;3.1;;;;;;;1.78;61.63477;95332.73;;;;
2022/01/31 01:34:21;;;;;;;9.25;3.1;;;;;;;1.78;61.63477;95332.73;;;;
2022/01/31 01:35:21;;;;;;;9.25;3.1;;;;;;;1.78;61.63477;95332.73;;;;
2022/01/31 01:36:22;;;;;;;9.25;3.1;;;;;;;1.78;61.63477;95332.73;;;;
2022/01/31 01:37:22;;;;;;;7.35;3.299999;;;;;;;1.86;61.7832;95325.57;;;;
2022/01/31 01:38:28;;;;;;;7.35;3.299999;;;;;;;1.86;61.7832;95325.57;;;;
2022/01/31 01:39:28;;;;;;;7.35;3.299999;;;;;;;1.86;61.7832;95325.57;;;;
2022/01/31 01:40:29;;;;;;;7.35;3.299999;;;;;;;1.86;61.7832;95325.57;;;;
2022/01/31 01:41:29;;;;;;;7.35;3.299999;;;;;;;1.86;61.7832;95325.57;;;;
2022/01/31 01:42:30;;;;;;;7.35;3.299999;;;;;;;1.86;61.7832;95325.57;;;;
2022/01/31 01:43:30;;;;;;;7.35;3.299999;;;;;;;1.86;61.7832;95325.57;;;;
2022/01/31 01:44:31;;;;;;;7.35;3.299999;;;;;;;1.86;61.7832;95325.57;;;;
2022/01/31 01:45:41;;;;;;;7.35;3.299999;;;;;;;1.86;61.7832;95325.57;;;;
2022/01/31 01:46:43;;;;;;;7.35;3.299999;;;;;;;1.86;61.7832;95325.57;;;;
2022/01/31 01:47:44;;;;;;;9.35;3.25;;;;;;;1.94;61.96289;95294.89;;;;
2022/01/31 01:48:44;;;;;;;9.35;3.25;;;;;;;1.94;61.96289;95294.89;;;;
2022/01/31 01:49:45;;;;;;;9.35;3.25;;;;;;;1.94;61.96289;95294.89;;;;
2022/01/31 01:50:46;;;;;;;9.35;3.25;;;;;;;1.94;61.96289;95294.89;;;;
2022/01/31 01:51:48;;;;;;;9.35;3.25;;;;;;;1.94;61.96289;95294.89;;;;
2022/01/31 01:52:50;;;;;;;9.35;3.25;;;;;;;1.94;61.96289;95294.89;;;;
2022/01/31 01:53:51;;;;;;;9.35;3.25;;;;;;;1.94;61.96289;95294.89;;;;
2022/01/31 01:54:52;;;;;;;9.35;3.25;;;;;;;1.94;61.96289;95294.89;;;;
2022/01/31 01:55:53;;;;;;;9.35;3.25;;;;;;;1.94;61.96289;95294.89;;;;
2022/01/31 01:56:54;;;;;;;9.35;3.25;;;;;;;1.94;61.96289;95294.89;;;;
2022/01/31 01:57:55;;;;;;;9.35;3.25;;;;;;;1.94;61.96289;95294.89;;;;
2022/01/31 01:58:57;;;;;;;10;3.35;;;;;;;2;62.12012;95250.2;;;;
2022/01/31 01:59:57;;;;;;;10;3.35;;;;;;;2;62.12012;95250.2;;;;
2022/01/31 02:00:59;;;;;;;10;3.35;;;;;;;2;62.12012;95250.2;;;;
2022/01/31 02:01:59;;;;;;;10;3.35;;;;;;;2;62.12012;95250.2;;;;
2022/01/31 02:03:00;;;;;;;10;3.35;;;;;;;2;62.12012;95250.2;;;;
2022/01/31 02:04:01;;;;;;;10;3.35;;;;;;;2;62.12012;95250.2;;;;
2022/01/31 02:05:01;;;;;;;10;3.35;;;;;;;2;62.12012;95250.2;;;;
2022/01/31 02:06:02;;;;;;;10;3.35;;;;;;;2;62.12012;95250.2;;;;
2022/01/31 02:07:04;;;;;;;10;3.35;;;;;;;2;62.12012;95250.2;;;;
2022/01/31 02:08:04;;;;;;;10;3.35;;;;;;;2;62.12012;95250.2;;;;
2022/01/31 02:09:05;;;;;;;10.3;3.3;;;;;;;2.02;62.32227;95197.52;;;;
2022/01/31 02:10:06;;;;;;;10.3;3.3;;;;;;;2.02;62.32227;95197.52;;;;
2022/01/31 02:11:07;;;;;;;10.3;3.3;;;;;;;2.02;62.32227;95197.52;;;;
2022/01/31 02:12:10;;;;;;;10.3;3.3;;;;;;;2.02;62.32227;95197.52;;;;
2022/01/31 02:13:12;;;;;;;10.3;3.3;;;;;;;2.02;62.32227;95197.52;;;;
2022/01/31 02:14:13;;;;;;;10.3;3.3;;;;;;;2.02;62.32227;95197.52;;;;
2022/01/31 02:15:14;;;;;;;10.3;3.3;;;;;;;2.02;62.32227;95197.52;;;;
2022/01/31 02:16:15;;;;;;;10.3;3.3;;;;;;;2.02;62.32227;95197.52;;;;
2022/01/31 02:17:17;;;;;;;10.3;3.3;;;;;;;2.02;62.32227;95197.52;;;;
2022/01/31 02:18:18;;;;;;;10.3;3.3;;;;;;;2.02;62.32227;95197.52;;;;
2022/01/31 02:19:21;;;;;;;10.3;3.3;;;;;;;2.02;62.32227;95197.52;;;;
2022/01/31 02:20:21;;;;;;;8.75;3.3;;;;;;;2.02;62.51172;95176.31;;;;
2022/01/31 02:21:22;;;;;;;8.75;3.3;;;;;;;2.02;62.51172;95176.31;;;;
2022/01/31 02:22:22;;;;;;;8.75;3.3;;;;;;;2.02;62.51172;95176.31;;;;
2022/01/31 02:23:23;;;;;;;8.75;3.3;;;;;;;2.02;62.51172;95176.31;;;;
2022/01/31 02:24:24;;;;;;;8.75;3.3;;;;;;;2.02;62.51172;95176.31;;;;
2022/01/31 02:25:25;;;;;;;8.75;3.3;;;;;;;2.02;62.51172;95176.31;;;;
2022/01/31 02:26:26;;;;;;;8.75;3.3;;;;;;;2.02;62.51172;95176.31;;;;
2022/01/31 02:27:27;;;;;;;8.75;3.3;;;;;;;2.02;62.51172;95176.31;;;;
2022/01/31 02:28:30;;;;;;;8.75;3.3;;;;;;;2.02;62.51172;95176.31;;;;
2022/01/31 02:29:33;;;;;;;8.75;3.3;;;;;;;2.02;62.51172;95176.31;;;;
2022/01/31 02:30:33;;;;;;;10.6;3.7;;;;;;;2.04;62.66211;95180.94;;;;
2022/01/31 02:31:34;;;;;;;10.6;3.7;;;;;;;2.04;62.66211;95180.94;;;;
2022/01/31 02:32:34;;;;;;;10.6;3.7;;;;;;;2.04;62.66211;95180.94;;;;
2022/01/31 02:33:35;;;;;;;10.6;3.7;;;;;;;2.04;62.66211;95180.94;;;;
2022/01/31 02:34:36;;;;;;;10.6;3.7;;;;;;;2.04;62.66211;95180.94;;;;
2022/01/31 02:35:37;;;;;;;10.6;3.7;;;;;;;2.04;62.66211;95180.94;;;;
2022/01/31 02:36:37;;;;;;;10.6;3.7;;;;;;;2.04;62.66211;95180.94;;;;
2022/01/31 02:37:39;;;;;;;10.6;3.7;;;;;;;2.04;62.66211;95180.94;;;;
2022/01/31 02:38:39;;;;;;;10.6;3.7;;;;;;;2.04;62.66211;95180.94;;;;
2022/01/31 02:39:40;;;;;;;10.6;3.7;;;;;;;2.04;62.66211;95180.94;;;;
2022/01/31 02:40:40;;;;;;;10.6;3.7;;;;;;;2.04;62.66211;95180.94;;;;
2022/01/31 02:41:41;;;;;;;8.599999;3.25;;;;;;;2.07;62.82422;95137.98;;;;
2022/01/31 02:42:44;;;;;;;8.599999;3.25;;;;;;;2.07;62.82422;95137.98;;;;
2022/01/31 02:43:49;;;;;;;8.599999;3.25;;;;;;;2.07;62.82422;95137.98;;;;
2022/01/31 02:44:50;;;;;;;8.599999;3.25;;;;;;;2.07;62.82422;95137.98;;;;
2022/01/31 02:45:50;;;;;;;8.599999;3.25;;;;;;;2.07;62.82422;95137.98;;;;
2022/01/31 02:46:53;;;;;;;8.599999;3.25;;;;;;;2.07;62.82422;95137.98;;;;
2022/01/31 02:47:56;;;;;;;8.599999;3.25;;;;;;;2.07;62.82422;95137.98;;;;
2022/01/31 02:48:58;;;;;;;8.599999;3.25;;;;;;;2.07;62.82422;95137.98;;;;
2022/01/31 02:50:01;;;;;;;8.599999;3.25;;;;;;;2.07;62.82422;95137.98;;;;
2022/01/31 02:51:08;;;;;;;8.599999;3.25;;;;;;;2.07;62.82422;95137.98;;;;
2022/01/31 02:52:12;;;;;;;6.9;3.05;;;;;;;2.16;62.85938;95128.88;;;;
2022/01/31 02:53:20;;;;;;;6.9;3.05;;;;;;;2.16;62.85938;95128.88;;;;
2022/01/31 02:54:21;;;;;;;6.9;3.05;;;;;;;2.16;62.85938;95128.88;;;;
2022/01/31 02:55:23;;;;;;;6.9;3.05;;;;;;;2.16;62.85938;95128.88;;;;
2022/01/31 02:56:23;;;;;;;6.9;3.05;;;;;;;2.16;62.85938;95128.88;;;;
2022/01/31 02:57:24;;;;;;;6.9;3.05;;;;;;;2.16;62.85938;95128.88;;;;
2022/01/31 02:58:25;;;;;;;6.9;3.05;;;;;;;2.16;62.85938;95128.88;;;;
2022/01/31 02:59:28;;;;;;;6.9;3.05;;;;;;;2.16;62.85938;95128.88;;;;
2022/01/31 03:00:28;;;;;;;6.9;3.05;;;;;;;2.16;62.85938;95128.88;;;;
2022/01/31 03:01:31;;;;;;;6.9;3.05;;;;;;;2.16;62.85938;95128.88;;;;
2022/01/31 03:02:33;;;;;;;6.9;3.4;;;;;;;2.22;62.90039;95103.21;;;;
2022/01/31 03:03:34;;;;;;;6.9;3.4;;;;;;;2.22;62.90039;95103.21;;;;
2022/01/31 03:04:34;;;;;;;6.9;3.4;;;;;;;2.22;62.90039;95103.21;;;;
2022/01/31 03:05:35;;;;;;;6.9;3.4;;;;;;;2.22;62.90039;95103.21;;;;
2022/01/31 03:06:37;;;;;;;6.9;3.4;;;;;;;2.22;62.90039;95103.21;;;;
2022/01/31 03:07:38;;;;;;;6.9;3.4;;;;;;;2.22;62.90039;95103.21;;;;
2022/01/31 03:08:39;;;;;;;6.9;3.4;;;;;;;2.22;62.90039;95103.21;;;;
2022/01/31 03:09:39;;;;;;;6.9;3.4;;;;;;;2.22;62.90039;95103.21;;;;
2022/01/31 03:10:40;;;;;;;6.9;3.4;;;;;;;2.22;62.90039;95103.21;;;;
2022/01/31 03:11:40;;;;;;;6.9;3.4;;;;;;;2.22;62.90039;95103.21;;;;
2022/01/31 03:12:41;;;;;;;6.9;3.4;;;;;;;2.22;62.90039;95103.21;;;;
2022/01/31 03:13:42;;;;;;;9.900001;3.45;;;;;;;2.24;63.01855;95088.28;;;;
2022/01/31 03:14:42;;;;;;;9.900001;3.45;;;;;;;2.24;63.01855;95088.28;;;;
2022/01/31 03:15:43;;;;;;;9.900001;3.45;;;;;;;2.24;63.01855;95088.28;;;;
2022/01/31 03:16:44;;;;;;;9.900001;3.45;;;;;;;2.24;63.01855;95088.28;;;;
2022/01/31 03:17:48;;;;;;;9.900001;3.45;;;;;;;2.24;63.01855;95088.28;;;;
2022/01/31 03:18:49;;;;;;;9.900001;3.45;;;;;;;2.24;63.01855;95088.28;;;;
2022/01/31 03:19:53;;;;;;;9.900001;3.45;;;;;;;2.24;63.01855;95088.28;;;;
2022/01/31 03:20:54;;;;;;;9.900001;3.45;;;;;;;2.24;63.01855;95088.28;;;;
2022/01/31 03:21:54;;;;;;;9.900001;3.45;;;;;;;2.24;63.01855;95088.28;;;;
2022/01/31 03:22:55;;;;;;;9.900001;3.45;;;;;;;2.24;63.01855;95088.28;;;;
2022/01/31 03:23:55;;;;;;;7.85;3.5;;;;;;;2.28;63.20313;95050.53;;;;
2022/01/31 03:24:56;;;;;;;7.85;3.5;;;;;;;2.28;63.20313;95050.53;;;;
2022/01/31 03:25:56;;;;;;;7.85;3.5;;;;;;;2.28;63.20313;95050.53;;;;
2022/01/31 03:26:57;;;;;;;7.85;3.5;;;;;;;2.28;63.20313;95050.53;;;;
2022/01/31 03:27:58;;;;;;;7.85;3.5;;;;;;;2.28;63.20313;95050.53;;;;
2022/01/31 03:28:58;;;;;;;7.85;3.5;;;;;;;2.28;63.20313;95050.53;;;;
2022/01/31 03:29:59;;;;;;;7.85;3.5;;;;;;;2.28;63.20313;95050.53;;;;
2022/01/31 03:30:59;;;;;;;7.85;3.5;;;;;;;2.28;63.20313;95050.53;;;;
2022/01/31 03:32:00;;;;;;;7.85;3.5;;;;;;;2.28;63.20313;95050.53;;;;
2022/01/31 03:33:00;;;;;;;7.85;3.5;;;;;;;2.28;63.20313;95050.53;;;;
2022/01/31 03:34:01;;;;;;;7.85;3.5;;;;;;;2.28;63.20313;95050.53;;;;
2022/01/31 03:35:02;;;;;;;9.149999;3.65;;;;;;;2.3;63.31152;95042.22;;;;
2022/01/31 03:36:04;;;;;;;9.149999;3.65;;;;;;;2.3;63.31152;95042.22;;;;
2022/01/31 03:37:05;;;;;;;9.149999;3.65;;;;;;;2.3;63.31152;95042.22;;;;
2022/01/31 03:38:05;;;;;;;9.149999;3.65;;;;;;;2.3;63.31152;95042.22;;;;
2022/01/31 03:39:06;;;;;;;9.149999;3.65;;;;;;;2.3;63.31152;95042.22;;;;
2022/01/31 03:40:06;;;;;;;9.149999;3.65;;;;;;;2.3;63.31152;95042.22;;;;
2022/01/31 03:41:09;;;;;;;9.149999;3.65;;;;;;;2.3;63.31152;95042.22;;;;
2022/01/31 03:42:15;;;;;;;9.149999;3.65;;;;;;;2.3;63.31152;95042.22;;;;
2022/01/31 03:43:16;;;;;;;9.149999;3.65;;;;;;;2.3;63.31152;95042.22;;;;
2022/01/31 03:44:17;;;;;;;9.149999;3.65;;;;;;;2.3;63.31152;95042.22;;;;
2022/01/31 03:45:19;;;;;;;8.199999;3.4;;;;;;;2.33;63.49512;95009.48;;;;
2022/01/31 03:46:20;;;;;;;8.199999;3.4;;;;;;;2.33;63.49512;95009.48;;;;
2022/01/31 03:47:21;;;;;;;8.199999;3.4;;;;;;;2.33;63.49512;95009.48;;;;
2022/01/31 03:48:24;;;;;;;8.199999;3.4;;;;;;;2.33;63.49512;95009.48;;;;
2022/01/31 03:49:25;;;;;;;8.199999;3.4;;;;;;;2.33;63.49512;95009.48;;;;
2022/01/31 03:50:25;;;;;;;8.199999;3.4;;;;;;;2.33;63.49512;95009.48;;;;
2022/01/31 03:51:27;;;;;;;8.199999;3.4;;;;;;;2.33;63.49512;95009.48;;;;
2022/01/31 03:52:27;;;;;;;8.199999;3.4;;;;;;;2.33;63.49512;95009.48;;;;
2022/01/31 03:53:28;;;;;;;8.199999;3.4;;;;;;;2.33;63.49512;95009.48;;;;
2022/01/31 03:54:29;;;;;;;8.199999;3.4;;;;;;;2.33;63.49512;95009.48;;;;
2022/01/31 03:55:30;;;;;;;8.199999;3.4;;;;;;;2.33;63.49512;95009.48;;;;
2022/01/31 03:56:30;;;;;;;9.000001;3.25;;;;;;;2.28;63.84473;94979.11;;;;
2022/01/31 03:57:31;;;;;;;9.000001;3.25;;;;;;;2.28;63.84473;94979.11;;;;
2022/01/31 03:58:32;;;;;;;9.000001;3.25;;;;;;;2.28;63.84473;94979.11;;;;
2022/01/31 03:59:32;;;;;;;9.000001;3.25;;;;;;;2.28;63.84473;94979.11;;;;
2022/01/31 04:00:33;;;;;;;9.000001;3.25;;;;;;;2.28;63.84473;94979.11;;;;
2022/01/31 04:01:33;;;;;;;9.000001;3.25;;;;;;;2.28;63.84473;94979.11;;;;
2022/01/31 04:02:34;;;;;;;9.000001;3.25;;;;;;;2.28;63.84473;94979.11;;;;
2022/01/31 04:03:35;;;;;;;9.000001;3.25;;;;;;;2.28;63.84473;94979.11;;;;
2022/01/31 04:04:35;;;;;;;9.000001;3.25;;;;;;;2.28;63.84473;94979.11;;;;
2022/01/31 04:05:37;;;;;;;9.000001;3.25;;;;;;;2.28;63.84473;94979.11;;;;
2022/01/31 04:06:38;;;;;;;8.299999;3.05;;;;;;;2.23;64.10059;94966.89;;;;
2022/01/31 04:07:40;;;;;;;8.299999;3.05;;;;;;;2.23;64.10059;94966.89;;;;
2022/01/31 04:08:40;;;;;;;8.299999;3.05;;;;;;;2.23;64.10059;94966.89;;;;
2022/01/31 04:09:41;;;;;;;8.299999;3.05;;;;;;;2.23;64.10059;94966.89;;;;
2022/01/31 04:10:41;;;;;;;8.299999;3.05;;;;;;;2.23;64.10059;94966.89;;;;
2022/01/31 04:11:43;;;;;;;8.299999;3.05;;;;;;;2.23;64.10059;94966.89;;;;
2022/01/31 04:12:43;;;;;;;8.299999;3.05;;;;;;;2.23;64.10059;94966.89;;;;
2022/01/31 04:13:44;;;;;;;8.299999;3.05;;;;;;;2.23;64.10059;94966.89;;;;
2022/01/31 04:14:44;;;;;;;8.299999;3.05;;;;;;;2.23;64.10059;94966.89;;;;
2022/01/31 04:15:45;;;;;;;8.299999;3.05;;;;;;;2.23;64.10059;94966.89;;;;
2022/01/31 04:16:46;;;;;;;8.299999;3.05;;;;;;;2.23;64.10059;94966.89;;;;
2022/01/31 04:17:46;;;;;;;8.6;3.05;;;;;;;2.22;64.21484;94927.94;;;;
2022/01/31 04:18:47;;;;;;;8.6;3.05;;;;;;;2.22;64.21484;94927.94;;;;
2022/01/31 04:19:47;;;;;;;8.6;3.05;;;;;;;2.22;64.21484;94927.94;;;;
2022/01/31 04:20:48;;;;;;;8.6;3.05;;;;;;;2.22;64.21484;94927.94;;;;
2022/01/31 04:21:49;;;;;;;8.6;3.05;;;;;;;2.22;64.21484;94927.94;;;;
2022/01/31 04:22:55;;;;;;;8.6;3.05;;;;;;;2.22;64.21484;94927.94;;;;
2022/01/31 04:23:55;;;;;;;8.6;3.05;;;;;;;2.22;64.21484;94927.94;;;;
2022/01/31 04:25:00;;;;;;;8.6;3.05;;;;;;;2.22;64.21484;94927.94;;;;
2022/01/31 04:26:08;;;;;;;8.6;3.05;;;;;;;2.22;64.21484;94927.94;;;;
2022/01/31 04:27:15;;;;;;;8.6;3.05;;;;;;;2.22;64.21484;94927.94;;;;
2022/01/31 04:28:19;;;;;;;9.6;3.45;;;;;;;2.21;64.35059;94905;;;;
2022/01/31 04:29:21;;;;;;;9.6;3.45;;;;;;;2.21;64.35059;94905;;;;
2022/01/31 04:30:22;;;;;;;9.6;3.45;;;;;;;2.21;64.35059;94905;;;;
2022/01/31 04:31:37;;;;;;;9.6;3.45;;;;;;;2.21;64.35059;94905;;;;
2022/01/31 04:32:37;;;;;;;9.6;3.45;;;;;;;2.21;64.35059;94905;;;;
2022/01/31 04:33:38;;;;;;;9.6;3.45;;;;;;;2.21;64.35059;94905;;;;
2022/01/31 04:34:40;;;;;;;9.6;3.45;;;;;;;2.21;64.35059;94905;;;;
2022/01/31 04:35:41;;;;;;;9.6;3.45;;;;;;;2.21;64.35059;94905;;;;
2022/01/31 04:36:41;;;;;;;9.6;3.45;;;;;;;2.21;64.35059;94905;;;;
2022/01/31 04:37:42;;;;;;;9.6;3.45;;;;;;;2.21;64.35059;94905;;;;
2022/01/31 04:38:42;;;;;;;9.449999;3.15;;;;;;;2.21;64.57129;94870.79;;;;
2022/01/31 04:39:44;;;;;;;9.449999;3.15;;;;;;;2.21;64.57129;94870.79;;;;
2022/01/31 04:40:45;;;;;;;9.449999;3.15;;;;;;;2.21;64.57129;94870.79;;;;
2022/01/31 04:41:46;;;;;;;9.449999;3.15;;;;;;;2.21;64.57129;94870.79;;;;
2022/01/31 04:42:48;;;;;;;9.449999;3.15;;;;;;;2.21;64.57129;94870.79;;;;
2022/01/31 04:43:50;;;;;;;9.449999;3.15;;;;;;;2.21;64.57129;94870.79;;;;
2022/01/31 04:44:53;;;;;;;9.449999;3.15;;;;;;;2.21;64.57129;94870.79;;;;
2022/01/31 04:45:56;;;;;;;9.449999;3.15;;;;;;;2.21;64.57129;94870.79;;;;
2022/01/31 04:46:56;;;;;;;9.449999;3.15;;;;;;;2.21;64.57129;94870.79;;;;
2022/01/31 04:47:57;;;;;;;9.449999;3.15;;;;;;;2.21;64.57129;94870.79;;;;
2022/01/31 04:48:58;;;;;;;9.449999;3.15;;;;;;;2.21;64.57129;94870.79;;;;
2022/01/31 04:49:58;;;;;;;8.800001;3.5;;;;;;;2.23;64.6377;94853.59;;;;
2022/01/31 04:50:59;;;;;;;8.800001;3.5;;;;;;;2.23;64.6377;94853.59;;;;
2022/01/31 04:51:59;;;;;;;8.800001;3.5;;;;;;;2.23;64.6377;94853.59;;;;
2022/01/31 04:53:00;;;;;;;8.800001;3.5;;;;;;;2.23;64.6377;94853.59;;;;
2022/01/31 04:54:00;;;;;;;8.800001;3.5;;;;;;;2.23;64.6377;94853.59;;;;
2022/01/31 04:55:01;;;;;;;8.800001;3.5;;;;;;;2.23;64.6377;94853.59;;;;
2022/01/31 04:56:01;;;;;;;8.800001;3.5;;;;;;;2.23;64.6377;94853.59;;;;
2022/01/31 04:57:02;;;;;;;8.800001;3.5;;;;;;;2.23;64.6377;94853.59;;;;
2022/01/31 04:58:03;;;;;;;8.800001;3.5;;;;;;;2.23;64.6377;94853.59;;;;
2022/01/31 04:59:05;;;;;;;8.800001;3.5;;;;;;;2.23;64.6377;94853.59;;;;
2022/01/31 05:00:06;;;;;;;10.2;3.55;;;;;;;2.24;64.83984;94783.34;;;;
2022/01/31 05:01:09;;;;;;;10.2;3.55;;;;;;;2.24;64.83984;94783.34;;;;
2022/01/31 05:02:09;;;;;;;10.2;3.55;;;;;;;2.24;64.83984;94783.34;;;;
2022/01/31 05:03:13;;;;;;;10.2;3.55;;;;;;;2.24;64.83984;94783.34;;;;
2022/01/31 05:04:13;;;;;;;10.2;3.55;;;;;;;2.24;64.83984;94783.34;;;;
2022/01/31 05:05:14;;;;;;;10.2;3.55;;;;;;;2.24;64.83984;94783.34;;;;
2022/01/31 05:06:19;;;;;;;10.2;3.55;;;;;;;2.24;64.83984;94783.34;;;;
2022/01/31 05:07:21;;;;;;;10.2;3.55;;;;;;;2.24;64.83984;94783.34;;;;
2022/01/31 05:08:25;;;;;;;10.2;3.55;;;;;;;2.24;64.83984;94783.34;;;;
2022/01/31 05:09:26;;;;;;;10.2;3.55;;;;;;;2.24;64.83984;94783.34;;;;
2022/01/31 05:10:27;;;;;;;10.2;3.55;;;;;;;2.24;64.83984;94783.34;;;;
2022/01/31 05:11:27;;;;;;;8.650002;3.2;;;;;;;2.22;65.00391;94804.52;;;;
2022/01/31 05:12:28;;;;;;;8.650002;3.2;;;;;;;2.22;65.00391;94804.52;;;;
2022/01/31 05:13:29;;;;;;;8.650002;3.2;;;;;;;2.22;65.00391;94804.52;;;;
2022/01/31 05:14:29;;;;;;;8.650002;3.2;;;;;;;2.22;65.00391;94804.52;;;;
2022/01/31 05:15:30;;;;;;;8.650002;3.2;;;;;;;2.22;65.00391;94804.52;;;;
2022/01/31 05:16:30;;;;;;;8.650002;3.2;;;;;;;2.22;65.00391;94804.52;;;;
2022/01/31 05:17:31;;;;;;;8.650002;3.2;;;;;;;2.22;65.00391;94804.52;;;;
2022/01/31 05:18:31;;;;;;;8.650002;3.2;;;;;;;2.22;65.00391;94804.52;;;;
2022/01/31 05:19:32;;;;;;;8.650002;3.2;;;;;;;2.22;65.00391;94804.52;;;;
2022/01/31 05:20:32;;;;;;;8.650002;3.2;;;;;;;2.22;65.00391;94804.52;;;;
2022/01/31 05:21:33;;;;;;;11.1;4.1;;;;;;;2.19;65.33691;94770.72;;;;
2022/01/31 05:22:34;;;;;;;11.1;4.1;;;;;;;2.19;65.33691;94770.72;;;;
2022/01/31 05:23:34;;;;;;;11.1;4.1;;;;;;;2.19;65.33691;94770.72;;;;
2022/01/31 05:24:35;;;;;;;11.1;4.1;;;;;;;2.19;65.33691;94770.72;;;;
2022/01/31 05:25:36;;;;;;;11.1;4.1;;;;;;;2.19;65.33691;94770.72;;;;
2022/01/31 05:26:36;;;;;;;11.1;4.1;;;;;;;2.19;65.33691;94770.72;;;;
2022/01/31 05:27:37;;;;;;;11.1;4.1;;;;;;;2.19;65.33691;94770.72;;;;
2022/01/31 05:28:37;;;;;;;11.1;4.1;;;;;;;2.19;65.33691;94770.72;;;;
2022/01/31 05:29:38;;;;;;;11.1;4.1;;;;;;;2.19;65.33691;94770.72;;;;
2022/01/31 05:30:39;;;;;;;11.1;4.1;;;;;;;2.19;65.33691;94770.72;;;;
2022/01/31 05:31:39;;;;;;;11.1;4.1;;;;;;;2.19;65.33691;94770.72;;;;
2022/01/31 05:32:40;;;;;;;11.75;4.5;;;;;;;2.2;65.88672;94728.83;;;;
2022/01/31 05:33:40;;;;;;;11.75;4.5;;;;;;;2.2;65.88672;94728.83;;;;
2022/01/31 05:34:41;;;;;;;11.75;4.5;;;;;;;2.2;65.88672;94728.83;;;;
2022/01/31 05:35:43;;;;;;;11.75;4.5;;;;;;;2.2;65.88672;94728.83;;;;
2022/01/31 05:36:43;;;;;;;11.75;4.5;;;;;;;2.2;65.88672;94728.83;;;;
2022/01/31 05:37:44;;;;;;;11.75;4.5;;;;;;;2.2;65.88672;94728.83;;;;
2022/01/31 05:38:45;;;;;;;11.75;4.5;;;;;;;2.2;65.88672;94728.83;;;;
2022/01/31 05:39:46;;;;;;;11.75;4.5;;;;;;;2.2;65.88672;94728.83;;;;
2022/01/31 05:40:47;;;;;;;11.75;4.5;;;;;;;2.2;65.88672;94728.83;;;;
2022/01/31 05:41:47;;;;;;;11.75;4.5;;;;;;;2.2;65.88672;94728.83;;;;
2022/01/31 05:42:48;;;;;;;11.45;4.600001;;;;;;;2.3;66.28027;94750.19;;;;
2022/01/31 05:43:48;;;;;;;11.45;4.600001;;;;;;;2.3;66.28027;94750.19;;;;
2022/01/31 05:44:49;;;;;;;11.45;4.600001;;;;;;;2.3;66.28027;94750.19;;;;
2022/01/31 05:45:49;;;;;;;11.45;4.600001;;;;;;;2.3;66.28027;94750.19;;;;
2022/01/31 05:46:50;;;;;;;11.45;4.600001;;;;;;;2.3;66.28027;94750.19;;;;